createdAt,value
2022-08-22T00:00:46.475Z,100.00
2022-08-22T00:02:57.787Z,100.00
2022-08-22T00:03:00.352Z,100.00
2022-08-22T00:03:23.458Z,100.00
2022-08-22T00:06:17.607Z,100.00
2022-08-22T00:09:06.035Z,100.00
2022-08-22T00:11:43.821Z,100.00
2022-08-22T00:14:13.633Z,100.00
2022-08-22T00:16:55.465Z,100.00
2022-08-22T00:19:28.227Z,100.00
2022-08-22T00:22:27.451Z,100.00
2022-08-22T00:25:25.700Z,100.00
2022-08-22T00:28:07.385Z,100.00
2022-08-22T00:31:21.887Z,100.00
2022-08-22T00:34:22.535Z,100.00
2022-08-22T00:37:02.578Z,100.00
2022-08-22T00:39:39.353Z,100.00
2022-08-22T00:42:31.586Z,100.00
2022-08-22T00:45:17.259Z,100.00
2022-08-22T00:48:08.664Z,100.00
2022-08-22T00:51:04.715Z,100.00
2022-08-22T00:53:47.187Z,100.00
2022-08-22T00:56:45.156Z,100.00
2022-08-22T00:59:32.351Z,100.00
2022-08-22T01:02:23.944Z,100.00
2022-08-22T01:04:59.948Z,100.00
2022-08-22T01:07:54.340Z,100.00
2022-08-22T01:10:57.946Z,100.00
2022-08-22T01:13:33.369Z,100.00
2022-08-22T01:16:22.043Z,100.00
2022-08-22T01:19:36.441Z,100.00
2022-08-22T01:22:38.434Z,100.00
2022-08-22T01:25:26.486Z,100.00
2022-08-22T01:28:08.439Z,100.00
2022-08-22T01:30:50.937Z,100.00
2022-08-22T01:33:43.866Z,100.00
2022-08-22T01:36:38.136Z,100.00
2022-08-22T01:39:26.511Z,100.00
2022-08-22T01:42:03.091Z,100.00
2022-08-22T01:45:05.439Z,100.00
2022-08-22T01:47:57.038Z,100.00
2022-08-22T01:50:53.173Z,100.00
2022-08-22T01:53:24.366Z,100.00
2022-08-22T01:56:10.134Z,100.00
2022-08-22T01:58:44.227Z,100.00
2022-08-22T02:01:18.213Z,100.00
2022-08-22T02:03:51.322Z,100.00
2022-08-22T02:06:33.174Z,100.00
2022-08-22T02:09:23.481Z,100.00
2022-08-22T02:12:00.370Z,100.00
2022-08-22T02:14:33.221Z,100.00
2022-08-22T02:17:25.086Z,100.00
2022-08-22T02:20:02.694Z,100.00
2022-08-22T02:22:53.474Z,100.00
2022-08-22T02:25:25.984Z,100.00
2022-08-22T02:28:06.015Z,100.00
2022-08-22T02:30:54.475Z,100.00
2022-08-22T02:33:39.917Z,100.00
2022-08-22T02:36:20.807Z,100.00
2022-08-22T02:39:21.302Z,100.00
2022-08-22T02:41:57.810Z,100.00
2022-08-22T02:44:40.095Z,100.00
2022-08-22T02:47:15.698Z,100.00
2022-08-22T02:49:51.501Z,100.00
2022-08-22T02:52:33.659Z,100.00
2022-08-22T02:55:08.009Z,100.00
2022-08-22T02:57:53.637Z,100.00
2022-08-22T03:00:32.146Z,100.00
2022-08-22T03:02:59.614Z,100.00
2022-08-22T03:05:38.584Z,100.00
2022-08-22T03:08:21.125Z,100.00
2022-08-22T03:10:59.058Z,100.00
2022-08-22T03:13:44.269Z,100.00
2022-08-22T03:16:28.406Z,100.00
2022-08-22T03:19:22.582Z,100.00
2022-08-22T03:22:02.730Z,100.00
2022-08-22T03:24:41.158Z,100.00
2022-08-22T03:27:32.819Z,100.00
2022-08-22T03:30:02.982Z,100.00
2022-08-22T03:32:48.127Z,100.00
2022-08-22T03:35:24.141Z,100.00
2022-08-22T03:37:57.286Z,100.00
2022-08-22T03:40:43.662Z,100.00
2022-08-22T03:43:29.139Z,100.00
2022-08-22T03:46:36.845Z,100.00
2022-08-22T03:49:36.596Z,100.00
2022-08-22T03:53:05.529Z,100.00
2022-08-22T03:56:05.394Z,100.00
2022-08-22T03:58:49.078Z,100.00
2022-08-22T04:01:31.781Z,100.00
2022-08-22T04:04:10.439Z,100.00
2022-08-22T04:06:37.124Z,100.00
2022-08-22T04:09:19.942Z,100.00
2022-08-22T04:12:02.528Z,100.00
2022-08-22T04:14:56.195Z,100.00
2022-08-22T04:18:09.014Z,100.00
2022-08-22T04:20:54.087Z,100.00
2022-08-22T04:23:26.841Z,100.00
2022-08-22T04:26:16.144Z,100.00
2022-08-22T04:28:50.981Z,100.00
2022-08-22T04:31:27.891Z,100.00
2022-08-22T04:34:01.075Z,100.00
2022-08-22T04:36:43.849Z,100.00
2022-08-22T04:39:24.699Z,100.00
2022-08-22T04:42:33.298Z,100.00
2022-08-22T04:45:06.296Z,100.00
2022-08-22T04:47:54.481Z,100.00
2022-08-22T04:50:24.199Z,100.00
2022-08-22T04:53:23.647Z,100.00
2022-08-22T04:56:14.024Z,100.00
2022-08-22T04:58:48.913Z,100.00
2022-08-22T05:01:20.119Z,100.00
2022-08-22T05:04:02.896Z,100.00
2022-08-22T05:06:34.041Z,100.00
2022-08-22T05:09:05.511Z,100.00
2022-08-22T05:11:33.912Z,100.00
2022-08-22T05:14:18.892Z,100.00
2022-08-22T05:16:51.670Z,100.00
2022-08-22T05:19:31.211Z,100.00
2022-08-22T05:21:59.102Z,100.00
2022-08-22T05:24:28.106Z,100.00
2022-08-22T05:26:58.479Z,100.00
2022-08-22T05:29:29.945Z,100.00
2022-08-22T05:32:03.943Z,100.00
2022-08-22T05:34:39.356Z,100.00
2022-08-22T05:37:10.395Z,100.00
2022-08-22T05:39:40.610Z,100.00
2022-08-22T05:42:13.147Z,100.00
2022-08-22T05:44:40.383Z,100.00
2022-08-22T05:47:24.453Z,100.00
2022-08-22T05:50:02.251Z,100.00
2022-08-22T05:52:44.138Z,100.00
2022-08-22T05:55:38.158Z,100.00
2022-08-22T05:58:41.747Z,100.00
2022-08-22T06:01:17.538Z,100.00
2022-08-22T06:04:08.716Z,100.00
2022-08-22T06:06:46.912Z,100.00
2022-08-22T06:09:34.697Z,100.00
2022-08-22T06:12:18.241Z,100.00
2022-08-22T06:14:54.779Z,100.00
2022-08-22T06:17:37.510Z,100.00
2022-08-22T06:20:08.884Z,100.00
2022-08-22T06:22:49.137Z,100.00
2022-08-22T06:25:22.600Z,100.00
2022-08-22T06:27:50.885Z,100.00
2022-08-22T06:30:19.242Z,100.00
2022-08-22T06:32:59.992Z,100.00
2022-08-22T06:35:59.874Z,100.00
2022-08-22T06:38:51.974Z,100.00
2022-08-22T06:41:22.207Z,100.00
2022-08-22T06:43:52.817Z,100.00
2022-08-22T06:46:22.798Z,100.00
2022-08-22T06:48:49.645Z,100.00
2022-08-22T06:51:19.498Z,100.00
2022-08-22T06:53:49.116Z,100.00
2022-08-22T06:56:29.705Z,100.00
2022-08-22T06:59:03.341Z,100.00
2022-08-22T07:02:04.365Z,100.00
2022-08-22T07:04:31.741Z,100.00
2022-08-22T07:07:01.436Z,100.00
2022-08-22T07:09:38.366Z,100.00
2022-08-22T07:12:14.558Z,100.00
2022-08-22T07:14:48.605Z,100.00
2022-08-22T07:17:25.850Z,100.00
2022-08-22T07:20:18.427Z,100.00
2022-08-22T07:23:01.036Z,100.00
2022-08-22T07:25:29.795Z,100.00
2022-08-22T07:28:51.407Z,100.00
2022-08-22T07:31:37.179Z,100.00
2022-08-22T07:34:31.347Z,100.00
2022-08-22T07:37:13.035Z,100.00
2022-08-22T07:40:05.637Z,100.00
2022-08-22T07:42:41.605Z,100.00
2022-08-22T07:45:29.164Z,100.00
2022-08-22T07:48:25.767Z,100.00
2022-08-22T07:51:08.822Z,100.00
2022-08-22T07:54:00.941Z,100.00
2022-08-22T07:56:37.938Z,100.00
2022-08-22T07:59:14.450Z,100.00
2022-08-22T08:01:51.561Z,100.00
2022-08-22T08:04:24.863Z,100.00
2022-08-22T08:06:53.485Z,100.00
2022-08-22T08:09:21.304Z,100.00
2022-08-22T08:11:51.796Z,100.00
2022-08-22T08:14:21.276Z,100.00
2022-08-22T08:17:01.149Z,100.00
2022-08-22T08:19:30.097Z,100.00
2022-08-22T08:21:59.059Z,100.00
2022-08-22T08:24:31.579Z,100.00
2022-08-22T08:27:26.814Z,100.00
2022-08-22T08:29:59.514Z,100.00
2022-08-22T08:32:31.898Z,100.00
2022-08-22T08:34:59.531Z,100.00
2022-08-22T08:38:11.110Z,100.00
2022-08-22T08:41:15.866Z,100.00
2022-08-22T08:44:18.519Z,100.00
2022-08-22T08:47:16.409Z,100.00
2022-08-22T08:50:01.352Z,100.00
2022-08-22T08:52:40.545Z,100.00
2022-08-22T08:55:38.638Z,100.00
2022-08-22T08:58:20.690Z,100.00
2022-08-22T09:00:59.344Z,100.00
2022-08-22T09:04:15.355Z,100.00
2022-08-22T09:07:16.678Z,100.00
2022-08-22T09:10:00.677Z,100.00
2022-08-22T09:12:56.448Z,100.00
2022-08-22T09:15:43.834Z,95.92
2022-08-22T09:18:34.096Z,100.00
2022-08-22T09:21:31.301Z,100.00
2022-08-22T09:24:16.887Z,100.00
2022-08-22T09:27:01.390Z,98.14
2022-08-22T09:29:36.198Z,94.96
2022-08-22T09:32:40.013Z,95.49
2022-08-22T09:35:22.723Z,96.44
2022-08-22T09:38:13.590Z,87.35
2022-08-22T09:41:18.334Z,90.00
2022-08-22T09:43:55.817Z,85.49
2022-08-22T09:47:05.844Z,83.52
2022-08-22T09:49:41.814Z,81.13
2022-08-22T09:52:32.009Z,85.89
2022-08-22T09:55:11.768Z,86.91
2022-08-22T09:58:06.124Z,90.43
2022-08-22T10:00:47.608Z,85.78
2022-08-22T10:03:47.644Z,89.32
2022-08-22T10:06:22.037Z,89.63
2022-08-22T10:08:57.914Z,88.69
2022-08-22T10:11:33.669Z,85.82
2022-08-22T10:14:22.317Z,85.12
2022-08-22T10:17:05.452Z,93.98
2022-08-22T10:19:52.955Z,86.66
2022-08-22T10:22:31.825Z,83.08
2022-08-22T10:25:18.541Z,83.53
2022-08-22T10:28:00.640Z,79.51
2022-08-22T10:30:40.004Z,80.89
2022-08-22T10:33:16.586Z,78.20
2022-08-22T10:35:43.233Z,83.13
2022-08-22T10:38:16.782Z,79.14
2022-08-22T10:41:13.435Z,76.53
2022-08-22T10:43:56.447Z,71.87
2022-08-22T10:46:36.368Z,71.55
2022-08-22T10:49:08.793Z,67.91
2022-08-22T10:51:58.358Z,68.27
2022-08-22T10:54:35.187Z,70.32
2022-08-22T10:57:24.699Z,72.67
2022-08-22T11:00:22.399Z,70.44
2022-08-22T11:03:18.666Z,71.25
2022-08-22T11:05:51.499Z,69.09
2022-08-22T11:08:34.651Z,65.24
2022-08-22T11:11:22.884Z,68.05
2022-08-22T11:13:55.538Z,67.03
2022-08-22T11:16:42.219Z,64.73
2022-08-22T11:19:31.235Z,61.59
2022-08-22T11:22:23.557Z,63.64
2022-08-22T11:25:04.502Z,66.21
2022-08-22T11:27:39.949Z,63.82
2022-08-22T11:30:18.786Z,59.40
2022-08-22T11:33:21.117Z,65.25
2022-08-22T11:36:05.792Z,65.54
2022-08-22T11:38:43.314Z,64.92
2022-08-22T11:41:19.076Z,66.92
2022-08-22T11:43:53.053Z,67.06
2022-08-22T11:46:34.118Z,66.48
2022-08-22T11:49:26.722Z,67.53
2022-08-22T11:52:08.746Z,66.28
2022-08-22T11:54:54.067Z,64.92
2022-08-22T11:57:32.930Z,62.79
2022-08-22T12:00:21.650Z,62.59
2022-08-22T12:03:16.527Z,63.16
2022-08-22T12:05:52.968Z,60.70
2022-08-22T12:08:35.605Z,59.88
2022-08-22T12:11:54.543Z,60.19
2022-08-22T12:14:35.864Z,59.06
2022-08-22T12:17:26.272Z,58.77
2022-08-22T12:20:21.323Z,60.82
2022-08-22T12:22:54.192Z,59.75
2022-08-22T12:25:50.666Z,59.02
2022-08-22T12:28:41.905Z,59.92
2022-08-22T12:31:24.454Z,59.18
2022-08-22T12:34:16.444Z,57.35
2022-08-22T12:37:03.809Z,55.30
2022-08-22T12:39:36.490Z,55.08
2022-08-22T12:42:27.424Z,54.23
2022-08-22T12:45:21.528Z,54.88
2022-08-22T12:48:05.873Z,56.32
2022-08-22T12:51:24.863Z,59.73
2022-08-22T12:54:01.099Z,60.68
2022-08-22T12:57:23.968Z,62.21
2022-08-22T12:59:58.188Z,61.42
2022-08-22T13:02:30.432Z,57.51
2022-08-22T13:05:11.246Z,56.28
2022-08-22T13:07:41.703Z,52.90
2022-08-22T13:10:14.839Z,52.16
2022-08-22T13:12:52.547Z,48.98
2022-08-22T13:15:33.530Z,47.74
2022-08-22T13:18:28.715Z,48.08
2022-08-22T13:21:01.125Z,47.82
2022-08-22T13:23:43.527Z,50.47
2022-08-22T13:26:31.832Z,52.50
2022-08-22T13:29:42.455Z,53.85
2022-08-22T13:32:04.601Z,56.03
2022-08-22T13:34:48.844Z,56.32
2022-08-22T13:37:24.606Z,57.60
2022-08-22T13:39:58.065Z,56.39
2022-08-22T13:42:30.441Z,55.85
2022-08-22T13:45:02.842Z,53.94
2022-08-22T13:47:34.709Z,54.25
2022-08-22T13:50:17.096Z,50.67
2022-08-22T13:52:52.438Z,50.20
2022-08-22T13:55:29.507Z,50.96
2022-08-22T13:58:11.322Z,48.91
2022-08-22T14:01:20.470Z,47.97
2022-08-22T14:04:33.406Z,48.94
2022-08-22T14:07:04.506Z,48.59
2022-08-22T14:09:54.538Z,47.84
2022-08-22T14:12:57.074Z,48.90
2022-08-22T14:15:45.412Z,49.98
2022-08-22T14:18:20.651Z,49.92
2022-08-22T14:21:25.179Z,51.51
2022-08-22T14:23:55.824Z,52.03
2022-08-22T14:26:33.014Z,54.53
2022-08-22T14:29:12.038Z,57.09
2022-08-22T14:31:39.934Z,58.98
2022-08-22T14:34:14.447Z,62.21
2022-08-22T14:36:55.147Z,64.77
2022-08-22T14:39:44.706Z,63.31
2022-08-22T14:42:38.203Z,63.88
2022-08-22T14:45:18.202Z,63.21
2022-08-22T14:48:29.876Z,63.15
2022-08-22T14:50:53.546Z,61.48
2022-08-22T14:53:26.584Z,60.08
2022-08-22T14:56:10.933Z,59.86
2022-08-22T14:58:58.276Z,61.16
2022-08-22T15:01:29.804Z,60.16
2022-08-22T15:04:05.772Z,60.02
2022-08-22T15:06:48.156Z,59.06
2022-08-22T15:09:36.859Z,59.87
2022-08-22T15:12:22.269Z,60.69
2022-08-22T15:14:56.142Z,62.43
2022-08-22T15:17:44.012Z,66.30
2022-08-22T15:20:27.824Z,73.07
2022-08-22T15:22:59.383Z,75.40
2022-08-22T15:25:33.702Z,76.89
2022-08-22T15:28:20.576Z,78.47
2022-08-22T15:31:06.670Z,79.62
2022-08-22T15:33:45.322Z,79.79
2022-08-22T15:36:15.654Z,79.83
2022-08-22T15:38:51.643Z,81.04
2022-08-22T15:41:36.671Z,82.10
2022-08-22T15:44:14.890Z,81.54
2022-08-22T15:46:59.806Z,79.11
2022-08-22T15:49:35.916Z,77.52
2022-08-22T15:52:04.465Z,76.97
2022-08-22T15:54:38.897Z,75.61
2022-08-22T15:57:22.741Z,77.21
2022-08-22T16:00:12.393Z,77.59
2022-08-22T16:02:54.066Z,79.59
2022-08-22T16:05:35.623Z,80.57
2022-08-22T16:08:11.728Z,80.75
2022-08-22T16:10:44.609Z,81.29
2022-08-22T16:13:26.448Z,79.50
2022-08-22T16:15:59.914Z,81.14
2022-08-22T16:18:42.738Z,81.42
2022-08-22T16:21:12.408Z,80.58
2022-08-22T16:23:51.787Z,80.77
2022-08-22T16:26:28.818Z,78.89
2022-08-22T16:29:14.793Z,81.52
2022-08-22T16:31:44.204Z,83.93
2022-08-22T16:34:17.131Z,85.13
2022-08-22T16:37:08.892Z,88.29
2022-08-22T16:39:49.079Z,88.72
2022-08-22T16:42:28.732Z,90.21
2022-08-22T16:45:13.081Z,92.11
2022-08-22T16:47:56.842Z,92.68
2022-08-22T16:50:28.534Z,93.18
2022-08-22T16:53:07.304Z,92.79
2022-08-22T16:55:50.571Z,93.90
2022-08-22T16:58:23.277Z,95.87
2022-08-22T17:00:58.058Z,95.38
2022-08-22T17:04:02.700Z,95.80
2022-08-22T17:06:38.247Z,95.42
2022-08-22T17:09:23.895Z,98.38
2022-08-22T17:12:17.651Z,98.73
2022-08-22T17:14:53.965Z,97.49
2022-08-22T17:17:32.753Z,98.35
2022-08-22T17:20:06.994Z,100.00
2022-08-22T17:22:45.576Z,100.00
2022-08-22T17:25:28.952Z,100.00
2022-08-22T17:28:13.370Z,100.00
2022-08-22T17:30:58.536Z,100.00
2022-08-22T17:33:59.646Z,100.00
2022-08-22T17:36:53.251Z,100.00
2022-08-22T17:39:47.459Z,100.00
2022-08-22T17:42:43.120Z,100.00
2022-08-22T17:45:27.909Z,100.00
2022-08-22T17:48:03.736Z,100.00
2022-08-22T17:50:40.197Z,100.00
2022-08-22T17:53:23.074Z,100.00
2022-08-22T17:56:03.588Z,100.00
2022-08-22T17:58:44.255Z,100.00
2022-08-22T18:01:41.011Z,100.00
2022-08-22T18:04:21.737Z,100.00
2022-08-22T18:06:56.299Z,100.00
2022-08-22T18:09:37.889Z,100.00
2022-08-22T18:12:16.900Z,100.00
2022-08-22T18:14:56.693Z,100.00
2022-08-22T18:17:39.603Z,100.00
2022-08-22T18:20:09.377Z,100.00
2022-08-22T18:22:42.023Z,100.00
2022-08-22T18:25:18.179Z,100.00
2022-08-22T18:27:59.931Z,100.00
2022-08-22T18:30:33.659Z,100.00
2022-08-22T18:33:27.717Z,100.00
2022-08-22T18:36:19.064Z,100.00
2022-08-22T18:39:04.488Z,100.00
2022-08-22T18:41:53.263Z,100.00
2022-08-22T18:44:32.363Z,100.00
2022-08-22T18:47:34.436Z,100.00
2022-08-22T18:50:22.797Z,100.00
2022-08-22T18:52:55.900Z,100.00
2022-08-22T18:55:43.768Z,100.00
2022-08-22T18:58:48.617Z,100.00
2022-08-22T19:01:34.045Z,100.00
2022-08-22T19:04:26.156Z,100.00
2022-08-22T19:07:25.086Z,100.00
2022-08-22T19:10:23.186Z,100.00
2022-08-22T19:12:59.031Z,100.00
2022-08-22T19:15:29.011Z,100.00
2022-08-22T19:18:27.083Z,100.00
2022-08-22T19:21:49.867Z,100.00
2022-08-22T19:24:19.534Z,100.00
2022-08-22T19:27:21.498Z,100.00
2022-08-22T19:29:48.578Z,100.00
2022-08-22T19:32:48.249Z,100.00
2022-08-22T19:35:28.761Z,100.00
2022-08-22T19:37:59.790Z,100.00
2022-08-22T19:40:44.851Z,100.00
2022-08-22T19:43:25.427Z,100.00
2022-08-22T19:45:55.754Z,100.00
2022-08-22T19:48:33.624Z,100.00
2022-08-22T19:51:13.507Z,100.00
2022-08-22T19:54:06.648Z,100.00
2022-08-22T19:56:36.360Z,100.00
2022-08-22T19:59:15.303Z,100.00
2022-08-22T20:02:13.053Z,100.00
2022-08-22T20:05:03.705Z,100.00
2022-08-22T20:07:36.499Z,100.00
2022-08-22T20:10:30.750Z,100.00
2022-08-22T20:13:07.478Z,100.00
2022-08-22T20:16:16.465Z,100.00
2022-08-22T20:18:55.613Z,100.00
2022-08-22T20:21:44.227Z,100.00
2022-08-22T20:24:19.757Z,100.00
2022-08-22T20:27:12.143Z,100.00
2022-08-22T20:29:39.845Z,100.00
2022-08-22T20:32:07.042Z,100.00
2022-08-22T20:34:39.535Z,100.00
2022-08-22T20:37:29.295Z,100.00
2022-08-22T20:40:55.652Z,100.00
2022-08-22T20:43:31.554Z,100.00
2022-08-22T20:46:19.106Z,100.00
2022-08-22T20:48:47.908Z,100.00
2022-08-22T20:51:19.697Z,100.00
2022-08-22T20:54:19.896Z,100.00
2022-08-22T20:56:53.532Z,100.00
2022-08-22T20:59:41.888Z,100.00
2022-08-22T21:02:19.071Z,100.00
2022-08-22T21:04:57.917Z,100.00
2022-08-22T21:07:32.035Z,100.00
2022-08-22T21:10:39.733Z,100.00
2022-08-22T21:13:10.885Z,100.00
2022-08-22T21:15:42.026Z,100.00
2022-08-22T21:18:23.523Z,100.00
2022-08-22T21:20:51.035Z,100.00
2022-08-22T21:23:18.325Z,100.00
2022-08-22T21:25:59.418Z,100.00
2022-08-22T21:28:49.156Z,100.00
2022-08-22T21:31:20.942Z,100.00
2022-08-22T21:33:50.639Z,100.00
2022-08-22T21:36:22.468Z,100.00
2022-08-22T21:38:54.009Z,100.00
2022-08-22T21:41:29.692Z,100.00
2022-08-22T21:43:56.888Z,100.00
2022-08-22T21:46:26.402Z,100.00
2022-08-22T21:49:04.484Z,100.00
2022-08-22T21:51:39.759Z,100.00
2022-08-22T21:54:25.831Z,100.00
2022-08-22T21:56:56.122Z,100.00
2022-08-22T21:59:24.942Z,100.00
2022-08-22T22:01:52.658Z,100.00
2022-08-22T22:04:22.810Z,100.00
2022-08-22T22:06:49.506Z,100.00
2022-08-22T22:09:16.279Z,100.00
2022-08-22T22:11:43.068Z,100.00
2022-08-22T22:14:09.868Z,100.00
2022-08-22T22:16:38.533Z,100.00
2022-08-22T22:19:07.133Z,100.00
2022-08-22T22:21:33.924Z,100.00
2022-08-22T22:24:00.641Z,100.00
2022-08-22T22:26:28.789Z,100.00
2022-08-22T22:28:55.707Z,100.00
2022-08-22T22:31:22.455Z,100.00
2022-08-22T22:33:49.136Z,100.00
2022-08-22T22:36:21.663Z,100.00
2022-08-22T22:38:51.613Z,100.00
2022-08-22T22:41:20.409Z,100.00
2022-08-22T22:43:47.248Z,100.00
2022-08-22T22:46:13.984Z,100.00
2022-08-22T22:48:40.721Z,100.00
2022-08-22T22:51:12.468Z,100.00
2022-08-22T22:53:42.775Z,100.00
2022-08-22T22:56:12.883Z,100.00
2022-08-22T22:58:41.059Z,100.00
2022-08-22T23:01:18.750Z,100.00
2022-08-22T23:06:42.068Z,100.00
2022-08-22T23:09:08.793Z,100.00
2022-08-22T23:11:36.298Z,100.00
2022-08-22T23:14:03.356Z,100.00
2022-08-22T23:16:35.205Z,100.00
2022-08-22T23:19:09.368Z,100.00
2022-08-22T23:21:36.122Z,100.00
2022-08-22T23:24:02.999Z,100.00
2022-08-22T23:26:31.258Z,100.00
2022-08-22T23:28:58.833Z,100.00
2022-08-22T23:31:28.270Z,100.00
2022-08-22T23:33:56.092Z,100.00
2022-08-22T23:36:24.022Z,100.00
2022-08-22T23:38:52.117Z,100.00
2022-08-22T23:41:21.819Z,100.00
2022-08-22T23:43:52.371Z,100.00
2022-08-22T23:46:22.200Z,100.00
2022-08-22T23:48:49.692Z,100.00
2022-08-22T23:51:23.082Z,100.00
2022-08-22T23:53:50.530Z,100.00
2022-08-22T23:56:32.994Z,100.00
2022-08-22T23:59:05.512Z,100.00
